Time;durP1;ratioP1;P1;durP2;ratioP2;P2;SDS_P1;SDS_P2;PMS_P1;PMS_P2;Temp;Humidity;BMP_temperature;BMP_pressure;BME280_temperature;BME280_humidity;BME280_pressure;Samples;Min_cycle;Max_cycle;Signal;HPM_P1;HPM_P2
2024/04/06 00:02:09;;;;;;;5.05;1.92;;;15.20;99.90;;;;;;5015587;28;20028;-78
2024/04/06 00:04:36;;;;;;;4.97;1.95;;;15.30;99.90;;;;;;5014000;28;20025;-77
2024/04/06 00:07:02;;;;;;;3.50;1.80;;;15.20;99.90;;;;;;5015331;28;20510;-78
2024/04/06 00:09:28;;;;;;;3.05;1.67;;;15.20;99.90;;;;;;5014295;28;20112;-78
2024/04/06 00:11:53;;;;;;;3.65;1.95;;;15.20;99.90;;;;;;5013939;28;20113;-78
2024/04/06 00:14:19;;;;;;;4.82;1.98;;;15.20;99.90;;;;;;5014152;28;20120;-77
2024/04/06 00:16:45;;;;;;;6.28;1.98;;;15.20;99.90;;;;;;5014939;28;20025;-78
2024/04/06 00:19:11;;;;;;;5.40;1.60;;;15.20;99.90;;;;;;5014451;28;20018;-78
2024/04/06 00:21:36;;;;;;;6.13;1.92;;;15.20;99.90;;;;;;5014670;28;20079;-78
2024/04/06 00:24:02;;;;;;;4.18;1.60;;;15.10;99.90;;;;;;5014448;28;20510;-78
2024/04/06 00:26:28;;;;;;;5.10;2.20;;;15.10;99.90;;;;;;5014272;28;20026;-78
2024/04/06 00:28:53;;;;;;;3.88;1.60;;;15.10;99.90;;;;;;5014695;28;20026;-78
2024/04/06 00:31:19;;;;;;;3.30;1.63;;;15.10;99.90;;;;;;5014271;28;20426;-78
2024/04/06 00:33:45;;;;;;;3.72;1.80;;;15.10;99.90;;;;;;5014516;28;20021;-78
2024/04/06 00:36:10;;;;;;;7.05;2.03;;;15.00;99.90;;;;;;5013992;28;20400;-78
2024/04/06 00:38:36;;;;;;;5.40;1.95;;;15.10;99.90;;;;;;5014588;28;20072;-78
2024/04/06 00:41:01;;;;;;;5.50;1.67;;;15.00;99.90;;;;;;5014146;28;20061;-78
2024/04/06 00:43:28;;;;;;;5.78;1.88;;;15.00;99.90;;;;;;5014350;28;20490;-78
2024/04/06 00:45:55;;;;;;;5.28;2.00;;;15.00;99.90;;;;;;5014116;28;20403;-77
2024/04/06 00:48:21;;;;;;;3.92;1.77;;;15.00;99.90;;;;;;5014833;28;20125;-78
2024/04/06 00:50:47;;;;;;;2.92;1.75;;;15.00;99.90;;;;;;5013829;28;20574;-78
2024/04/06 00:53:12;;;;;;;4.47;1.83;;;15.00;99.90;;;;;;5014683;28;20088;-77
2024/04/06 00:55:38;;;;;;;4.47;1.83;;;15.00;99.90;;;;;;5013703;28;20033;-77
2024/04/06 00:58:04;;;;;;;5.13;1.73;;;15.10;99.90;;;;;;5014251;28;20029;-79
2024/04/06 01:00:29;;;;;;;8.07;2.55;;;15.10;99.90;;;;;;5012674;28;20022;-78
2024/04/06 01:02:55;;;;;;;4.65;1.67;;;15.10;99.90;;;;;;5014565;28;20104;-77
2024/04/06 01:05:20;;;;;;;4.03;1.70;;;15.20;99.90;;;;;;5013412;28;20064;-77
2024/04/06 01:07:46;;;;;;;4.57;1.63;;;15.20;99.90;;;;;;5014198;28;20030;-77
2024/04/06 01:10:12;;;;;;;4.63;1.70;;;15.30;99.90;;;;;;5013481;28;20402;-77
2024/04/06 01:12:38;;;;;;;2.70;1.63;;;15.30;99.90;;;;;;5014235;28;20030;-77
2024/04/06 01:15:04;;;;;;;2.88;1.60;;;15.30;99.90;;;;;;5012162;28;20025;-77
2024/04/06 01:17:30;;;;;;;3.95;1.70;;;15.40;99.90;;;;;;5014036;28;20501;-78
2024/04/06 01:19:56;;;;;;;3.72;1.88;;;15.40;99.90;;;;;;5013487;28;20026;-77
2024/04/06 01:22:21;;;;;;;3.20;1.70;;;15.30;99.90;;;;;;5014145;28;20026;-78
2024/04/06 01:24:47;;;;;;;6.80;2.10;;;15.20;99.90;;;;;;5013111;28;20461;-77
2024/04/06 01:27:13;;;;;;;3.92;1.63;;;15.20;99.90;;;;;;5013677;28;20542;-78
2024/04/06 01:29:39;;;;;;;1.95;1.42;;;15.20;99.90;;;;;;5012671;28;20030;-78
2024/04/06 01:32:04;;;;;;;6.45;1.90;;;15.20;99.90;;;;;;5014098;28;20041;-77
2024/04/06 01:34:30;;;;;;;4.30;2.13;;;15.10;99.90;;;;;;5012989;28;20026;-77
2024/04/06 01:36:56;;;;;;;5.00;2.08;;;15.10;99.90;;;;;;5013554;28;20033;-77
2024/04/06 01:39:21;;;;;;;4.00;1.98;;;15.10;99.90;;;;;;5013463;28;20037;-77
2024/04/06 01:41:48;;;;;;;4.30;1.80;;;15.10;99.90;;;;;;5012668;28;20033;-77
2024/04/06 01:44:14;;;;;;;4.55;2.10;;;15.10;99.90;;;;;;5013430;28;20124;-77
2024/04/06 01:46:40;;;;;;;4.05;1.88;;;15.00;99.90;;;;;;5012957;28;20049;-77
2024/04/06 01:49:06;;;;;;;4.70;2.05;;;15.00;99.90;;;;;;5013522;28;20533;-77
2024/04/06 01:51:31;;;;;;;5.47;2.05;;;15.00;99.90;;;;;;5012737;28;20423;-78
2024/04/06 01:53:57;;;;;;;4.25;2.10;;;15.00;99.90;;;;;;5013363;28;20018;-78
2024/04/06 01:56:23;;;;;;;4.68;2.00;;;15.00;99.90;;;;;;5012338;28;20430;-78
2024/04/06 01:58:48;;;;;;;6.43;1.90;;;15.00;99.90;;;;;;5013473;28;20029;-77
2024/04/06 02:01:14;;;;;;;5.47;1.70;;;15.00;99.90;;;;;;5010919;28;20022;-77
2024/04/06 02:03:41;;;;;;;4.13;1.80;;;15.00;99.90;;;;;;5013040;28;20472;-78
2024/04/06 02:06:08;;;;;;;2.78;1.70;;;15.00;99.90;;;;;;5011856;28;20115;-78
2024/04/06 02:08:35;;;;;;;3.95;2.10;;;15.00;99.90;;;;;;5013012;28;20025;-77
2024/04/06 02:11:02;;;;;;;6.03;2.00;;;15.00;99.90;;;;;;5011915;28;20161;-77
2024/04/06 02:13:27;;;;;;;4.40;1.90;;;15.00;99.90;;;;;;5013150;28;20215;-77
2024/04/06 02:15:54;;;;;;;3.78;2.00;;;15.00;99.90;;;;;;5012056;28;20176;-77
2024/04/06 02:18:20;;;;;;;3.35;1.98;;;15.00;99.90;;;;;;5012826;28;20052;-77
2024/04/06 02:20:45;;;;;;;4.40;1.80;;;15.00;99.90;;;;;;5011930;28;20018;-77
2024/04/06 02:23:11;;;;;;;2.95;1.60;;;15.00;99.90;;;;;;5013011;28;20032;-77
2024/04/06 02:25:37;;;;;;;4.63;1.92;;;14.90;99.90;;;;;;5011961;28;20414;-77
2024/04/06 02:28:03;;;;;;;4.53;1.80;;;14.90;99.90;;;;;;5012549;28;20022;-77
2024/04/06 02:30:28;;;;;;;5.43;1.67;;;14.90;99.90;;;;;;5010774;28;20084;-78
2024/04/06 02:32:54;;;;;;;3.50;1.98;;;14.90;99.90;;;;;;5012828;28;20025;-77
2024/04/06 02:35:19;;;;;;;3.75;1.77;;;14.90;99.90;;;;;;5011857;28;20022;-77
2024/04/06 02:37:45;;;;;;;4.10;2.10;;;14.90;99.90;;;;;;5012724;28;20104;-77
2024/04/06 02:40:14;;;;;;;4.13;1.60;;;14.90;99.90;;;;;;5011674;28;20030;-77
2024/04/06 02:42:40;;;;;;;5.88;1.60;;;14.80;99.90;;;;;;5011083;28;20014;-77
2024/04/06 02:45:07;;;;;;;6.72;1.77;;;14.70;99.90;;;;;;5012205;28;20034;-77
2024/04/06 02:47:33;;;;;;;5.32;1.98;;;14.70;99.90;;;;;;5012271;28;20036;-78
2024/04/06 02:49:59;;;;;;;3.33;1.88;;;14.70;99.90;;;;;;5011863;28;20069;-77
2024/04/06 02:52:24;;;;;;;4.47;1.70;;;14.70;99.90;;;;;;5012312;28;20049;-77
2024/04/06 02:54:50;;;;;;;5.05;1.77;;;14.60;99.90;;;;;;5011775;28;20026;-77
2024/04/06 02:57:16;;;;;;;5.85;1.80;;;14.60;99.90;;;;;;5011874;28;20022;-77
2024/04/06 02:59:42;;;;;;;4.20;1.88;;;14.60;99.90;;;;;;5012585;28;20390;-75
2024/04/06 03:02:09;;;;;;;6.55;2.00;;;14.60;99.90;;;;;;5012037;28;20018;-75
2024/04/06 03:04:35;;;;;;;3.28;1.60;;;14.50;99.90;;;;;;5010742;28;20026;-76
2024/04/06 03:07:01;;;;;;;3.22;1.50;;;14.50;99.90;;;;;;5011502;28;20071;-76
2024/04/06 03:09:26;;;;;;;4.03;1.70;;;14.50;99.90;;;;;;5012630;28;20104;-76
2024/04/06 03:11:52;;;;;;;3.03;1.77;;;14.50;99.90;;;;;;5011218;28;20033;-76
2024/04/06 03:14:18;;;;;;;5.38;1.98;;;14.50;99.90;;;;;;5011077;28;20050;-76
2024/04/06 03:16:43;;;;;;;2.22;1.60;;;14.50;99.90;;;;;;5011677;28;20040;-76
2024/04/06 03:19:09;;;;;;;3.80;1.77;;;14.60;99.90;;;;;;5012406;28;20491;-76
2024/04/06 03:21:35;;;;;;;3.45;1.55;;;14.50;99.90;;;;;;5011422;28;20383;-76
2024/04/06 03:24:00;;;;;;;4.50;2.00;;;14.50;99.90;;;;;;5012358;28;20022;-76
2024/04/06 03:26:26;;;;;;;5.45;1.67;;;14.50;99.90;;;;;;5011209;28;20084;-76
2024/04/06 03:28:52;;;;;;;5.32;1.67;;;14.50;99.90;;;;;;5012533;28;20463;-77
2024/04/06 03:31:18;;;;;;;6.75;1.90;;;14.50;99.90;;;;;;5011534;28;20096;-76
2024/04/06 03:33:44;;;;;;;3.75;1.77;;;14.50;99.90;;;;;;5012249;28;20050;-76
2024/04/06 03:36:10;;;;;;;4.80;2.10;;;14.50;99.90;;;;;;5011421;28;20056;-76
2024/04/06 03:38:35;;;;;;;4.05;1.80;;;14.40;99.90;;;;;;5010765;28;20067;-76
2024/04/06 03:41:01;;;;;;;5.38;2.15;;;14.40;99.90;;;;;;5009834;28;20026;-77
2024/04/06 03:43:27;;;;;;;4.03;1.80;;;14.40;99.90;;;;;;5011771;28;20498;-76
2024/04/06 03:45:54;;;;;;;3.63;1.90;;;14.50;99.90;;;;;;5010290;28;20068;-76
2024/04/06 03:48:21;;;;;;;4.82;1.98;;;14.40;99.90;;;;;;5010545;28;20557;-76
2024/04/06 03:50:47;;;;;;;4.53;2.00;;;14.40;99.90;;;;;;5011348;28;20026;-76
2024/04/06 03:53:15;;;;;;;4.82;2.10;;;14.40;99.90;;;;;;5012878;28;20475;-77
2024/04/06 03:55:41;;;;;;;2.92;1.92;;;14.40;99.90;;;;;;5014835;28;20116;-77
2024/04/06 03:58:06;;;;;;;4.82;2.38;;;14.40;99.90;;;;;;5015379;28;20106;-77
2024/04/06 04:00:32;;;;;;;4.00;1.90;;;14.40;99.90;;;;;;5013691;28;20491;-78
2024/04/06 04:02:58;;;;;;;3.70;2.22;;;14.30;99.90;;;;;;5015336;28;20108;-77
2024/04/06 04:05:23;;;;;;;5.47;2.22;;;14.30;99.90;;;;;;5014306;28;20050;-77
2024/04/06 04:07:49;;;;;;;6.25;2.13;;;14.20;99.90;;;;;;5015157;28;20029;-77
2024/04/06 04:10:15;;;;;;;4.90;2.05;;;14.20;99.90;;;;;;5014448;28;20022;-76
2024/04/06 04:12:40;;;;;;;4.90;2.17;;;14.10;99.90;;;;;;5015010;28;20475;-76
2024/04/06 04:15:06;;;;;;;4.30;1.98;;;14.10;99.90;;;;;;5014448;28;20033;-77
2024/04/06 04:17:35;;;;;;;2.60;1.88;;;14.10;99.90;;;;;;5014694;28;20417;-76
2024/04/06 04:20:08;;;;;;;3.42;2.00;;;14.10;99.90;;;;;;5015020;28;20022;-76
2024/04/06 04:22:34;;;;;;;4.78;2.10;;;14.00;99.90;;;;;;5013615;28;20029;-77
2024/04/06 04:25:00;;;;;;;5.18;2.53;;;14.00;99.90;;;;;;5014833;28;20022;-77
2024/04/06 04:27:26;;;;;;;4.43;2.00;;;14.00;99.90;;;;;;5014315;28;20452;-77
2024/04/06 04:29:52;;;;;;;4.97;2.00;;;14.00;99.90;;;;;;5015042;28;20034;-77
2024/04/06 04:32:17;;;;;;;5.95;2.30;;;14.00;99.90;;;;;;5013871;28;20080;-77
2024/04/06 04:34:43;;;;;;;4.72;2.58;;;14.00;99.90;;;;;;5013407;28;20029;-77
2024/04/06 04:37:09;;;;;;;6.32;2.60;;;14.00;99.90;;;;;;5013772;28;20029;-77
2024/04/06 04:39:34;;;;;;;4.15;2.50;;;14.00;99.90;;;;;;5014556;28;20464;-77
2024/04/06 04:42:00;;;;;;;7.00;2.78;;;13.90;99.90;;;;;;5013751;28;20025;-77
2024/04/06 04:44:29;;;;;;;6.53;2.80;;;13.90;99.90;;;;;;5013327;28;20022;-77
2024/04/06 04:46:54;;;;;;;6.50;3.00;;;13.80;99.90;;;;;;5013752;28;20437;-77
2024/04/06 04:49:22;;;;;;;5.07;2.85;;;13.80;99.90;;;;;;5014167;28;20131;-77
2024/04/06 04:51:48;;;;;;;6.53;2.60;;;13.80;99.90;;;;;;5013985;28;20026;-76
2024/04/06 04:54:14;;;;;;;5.95;2.72;;;13.80;99.90;;;;;;5014177;28;20022;-77
2024/04/06 04:56:40;;;;;;;5.43;2.85;;;13.80;99.90;;;;;;5013821;28;20026;-77
2024/04/06 04:59:06;;;;;;;7.50;3.35;;;13.80;99.90;;;;;;5014453;28;20028;-77
2024/04/06 05:01:32;;;;;;;4.63;2.88;;;13.80;99.90;;;;;;5014051;28;20033;-77
2024/04/06 05:03:57;;;;;;;5.82;2.83;;;13.80;99.90;;;;;;5013606;28;20026;-77
2024/04/06 05:06:23;;;;;;;6.70;3.10;;;13.80;99.90;;;;;;5013183;28;20056;-77
2024/04/06 05:08:48;;;;;;;7.30;3.03;;;13.90;99.90;;;;;;5014499;28;20022;-77
2024/04/06 05:11:15;;;;;;;6.35;3.00;;;13.80;99.90;;;;;;5013997;28;20096;-77
2024/04/06 05:13:40;;;;;;;8.88;3.13;;;13.80;99.90;;;;;;5013997;28;20025;-76
2024/04/06 05:16:06;;;;;;;8.13;3.13;;;13.90;99.90;;;;;;5013832;28;20025;-77
2024/04/06 05:18:31;;;;;;;6.63;2.92;;;13.90;99.90;;;;;;5014205;28;20088;-77
2024/04/06 05:20:58;;;;;;;8.65;3.17;;;13.90;99.90;;;;;;5013616;28;20025;-77
2024/04/06 05:23:27;;;;;;;3.95;2.53;;;13.90;99.90;;;;;;5012704;28;20018;-77
2024/04/06 05:25:53;;;;;;;7.75;2.88;;;13.90;99.90;;;;;;5013579;28;20530;-77
2024/04/06 05:28:21;;;;;;;9.93;3.22;;;13.90;99.90;;;;;;5013847;28;20490;-77
2024/04/06 05:30:48;;;;;;;4.40;2.53;;;13.90;99.90;;;;;;5011988;28;20066;-77
2024/04/06 05:33:14;;;;;;;6.60;2.50;;;13.90;99.90;;;;;;5013444;28;20479;-77
2024/04/06 05:35:44;;;;;;;5.10;2.55;;;13.90;99.90;;;;;;5012791;28;20034;-77
2024/04/06 05:38:10;;;;;;;6.22;2.50;;;13.90;99.90;;;;;;5013323;28;20025;-77
2024/04/06 05:40:40;;;;;;;5.22;2.53;;;13.90;99.90;;;;;;5013241;28;20033;-77
2024/04/06 05:43:07;;;;;;;4.70;2.30;;;13.90;99.90;;;;;;5012036;28;20122;-77
2024/04/06 05:45:33;;;;;;;5.47;2.40;;;13.90;99.90;;;;;;5013042;28;20128;-77
2024/04/06 05:48:03;;;;;;;4.13;2.40;;;13.90;99.90;;;;;;5013382;28;20101;-77
2024/04/06 05:50:37;;;;;;;5.67;2.50;;;13.90;99.90;;;;;;5013201;28;20032;-77
2024/04/06 05:53:04;;;;;;;5.10;2.47;;;13.90;99.90;;;;;;5012289;28;20069;-77
2024/04/06 05:55:30;;;;;;;4.28;2.30;;;13.90;99.90;;;;;;5012746;28;20425;-77
2024/04/06 05:57:56;;;;;;;6.22;2.67;;;13.90;99.90;;;;;;5013243;28;20029;-78
2024/04/06 06:00:24;;;;;;;3.80;2.10;;;13.90;99.90;;;;;;5012770;28;20017;-77
2024/04/06 06:02:51;;;;;;;5.55;2.75;;;13.90;99.90;;;;;;5013245;28;20510;-78
2024/04/06 06:05:17;;;;;;;6.05;2.40;;;13.90;99.90;;;;;;5012594;28;20053;-77
2024/04/06 06:07:43;;;;;;;3.70;2.28;;;13.90;99.90;;;;;;5012755;28;20021;-77
2024/04/06 06:10:08;;;;;;;4.43;2.25;;;14.00;99.90;;;;;;5012775;28;20088;-76
2024/04/06 06:12:34;;;;;;;4.85;2.20;;;14.00;99.90;;;;;;5012400;28;20505;-77
2024/04/06 06:15:00;;;;;;;4.68;2.10;;;14.00;99.90;;;;;;5012568;28;20036;-77
2024/04/06 06:17:26;;;;;;;6.03;2.47;;;14.10;99.90;;;;;;5012088;28;20499;-77
2024/04/06 06:19:51;;;;;;;4.72;2.22;;;14.10;99.90;;;;;;5012584;28;20072;-77
2024/04/06 06:22:17;;;;;;;5.93;2.10;;;14.10;99.90;;;;;;5012441;28;20022;-77
2024/04/06 06:24:43;;;;;;;4.15;2.40;;;14.20;99.90;;;;;;5012710;28;20489;-76
2024/04/06 06:27:09;;;;;;;2.42;1.80;;;14.20;99.90;;;;;;5012168;28;20033;-77
2024/04/06 06:29:35;;;;;;;4.95;2.60;;;14.30;99.90;;;;;;5012522;28;20014;-76
2024/04/06 06:32:00;;;;;;;4.50;2.17;;;14.20;99.90;;;;;;5012085;28;20028;-77
2024/04/06 06:34:26;;;;;;;4.43;1.90;;;14.20;99.90;;;;;;5012488;28;20025;-76
2024/04/06 06:36:52;;;;;;;3.97;2.20;;;14.30;99.90;;;;;;5012149;28;20510;-77
2024/04/06 06:39:18;;;;;;;4.25;2.20;;;14.30;99.90;;;;;;5012642;28;20060;-77
2024/04/06 06:41:43;;;;;;;5.07;2.30;;;14.30;99.90;;;;;;5012082;28;20487;-76
2024/04/06 06:44:09;;;;;;;4.93;2.00;;;14.40;99.90;;;;;;5012476;28;20029;-77
2024/04/06 06:46:35;;;;;;;5.63;1.83;;;14.50;99.90;;;;;;5012088;28;20026;-77
2024/04/06 06:49:01;;;;;;;3.55;1.80;;;14.60;99.90;;;;;;5011210;28;20076;-77
2024/04/06 06:51:26;;;;;;;7.32;1.95;;;14.70;99.90;;;;;;5011964;28;20022;-77
2024/04/06 06:53:53;;;;;;;3.45;1.90;;;14.70;99.90;;;;;;5012089;28;20034;-77
2024/04/06 06:56:23;;;;;;;3.28;1.73;;;14.80;99.90;;;;;;5010338;28;20030;-77
2024/04/06 06:58:52;;;;;;;7.20;2.20;;;14.90;99.90;;;;;;5012458;28;20113;-78
2024/04/06 07:01:18;;;;;;;3.15;1.50;;;14.90;99.90;;;;;;5011594;28;20033;-77
2024/04/06 07:03:43;;;;;;;6.07;1.67;;;15.00;99.90;;;;;;5012350;28;20513;-78
2024/04/06 07:06:12;;;;;;;4.03;1.88;;;15.10;99.90;;;;;;5011229;28;20049;-77
2024/04/06 07:08:39;;;;;;;2.88;1.67;;;15.10;99.90;;;;;;5012581;28;20040;-78
2024/04/06 07:11:05;;;;;;;2.90;1.40;;;15.20;99.90;;;;;;5011612;28;20111;-78
2024/04/06 07:13:31;;;;;;;4.97;1.80;;;15.30;99.90;;;;;;5012317;28;20077;-77
2024/04/06 07:16:04;;;;;;;3.92;1.70;;;15.40;99.90;;;;;;5011803;28;20026;-77
2024/04/06 07:18:34;;;;;;;4.38;1.80;;;15.50;99.90;;;;;;5012385;28;20025;-77
2024/04/06 07:21:00;;;;;;;4.13;1.60;;;15.70;99.90;;;;;;5011574;28;20124;-77
2024/04/06 07:23:26;;;;;;;3.30;1.60;;;15.80;99.90;;;;;;5012406;28;20049;-78
2024/04/06 07:25:52;;;;;;;5.07;1.98;;;15.90;99.90;;;;;;5011629;28;20111;-77
2024/04/06 07:28:18;;;;;;;4.25;1.63;;;16.00;99.90;;;;;;5014021;28;20487;-77
2024/04/06 07:30:44;;;;;;;4.18;1.70;;;16.20;99.90;;;;;;5015670;28;20109;-76
2024/04/06 07:33:11;;;;;;;3.95;1.85;;;16.30;99.90;;;;;;5014601;28;20029;-76
2024/04/06 07:35:37;;;;;;;4.00;1.67;;;16.40;99.90;;;;;;5015743;28;20084;-76
2024/04/06 07:38:03;;;;;;;2.47;1.63;;;16.50;99.90;;;;;;5015649;28;20506;-76
2024/04/06 07:40:28;;;;;;;6.53;2.10;;;16.60;99.90;;;;;;5015424;28;20025;-76
2024/04/06 07:42:54;;;;;;;4.35;1.90;;;16.70;99.90;;;;;;5015596;28;20022;-76
2024/04/06 07:45:20;;;;;;;3.65;2.08;;;16.80;99.90;;;;;;5015456;28;20026;-76
2024/04/06 07:47:45;;;;;;;2.92;1.60;;;16.90;99.90;;;;;;5015002;28;20067;-76
2024/04/06 07:50:11;;;;;;;3.83;1.83;;;17.00;99.90;;;;;;5015559;28;20117;-76
2024/04/06 07:52:37;;;;;;;4.80;1.80;;;17.10;99.90;;;;;;5015037;28;20026;-76
2024/04/06 07:55:03;;;;;;;3.75;1.70;;;17.20;99.90;;;;;;5015477;28;20437;-77
2024/04/06 07:57:29;;;;;;;6.25;2.08;;;17.30;99.90;;;;;;5015062;28;20041;-77
2024/04/06 07:59:55;;;;;;;3.83;1.80;;;17.40;99.90;;;;;;5015101;28;20025;-77
2024/04/06 08:02:24;;;;;;;4.30;1.48;;;17.50;99.90;;;;;;5014532;28;20026;-77
2024/04/06 08:04:55;;;;;;;5.90;1.77;;;17.60;99.90;;;;;;5014820;28;20046;-77
2024/04/06 08:07:24;;;;;;;5.40;1.90;;;17.70;99.90;;;;;;5014381;28;20029;-77
2024/04/06 08:09:56;;;;;;;5.18;1.58;;;17.80;99.90;;;;;;5015117;28;20420;-77
2024/04/06 08:12:23;;;;;;;4.43;1.83;;;17.90;99.90;;;;;;5014289;28;20022;-77
2024/04/06 08:14:49;;;;;;;2.90;1.50;;;18.00;99.90;;;;;;5015165;28;20022;-77
2024/04/06 08:17:15;;;;;;;4.00;1.77;;;18.10;99.90;;;;;;5014314;28;20378;-76
2024/04/06 08:19:41;;;;;;;5.13;1.88;;;18.20;99.90;;;;;;5014981;28;20053;-76
2024/04/06 08:22:06;;;;;;;3.75;1.42;;;18.30;99.90;;;;;;5014374;28;20022;-77
2024/04/06 08:24:32;;;;;;;3.35;1.50;;;18.40;99.90;;;;;;5015060;28;20117;-76
2024/04/06 08:26:58;;;;;;;3.72;1.67;;;18.50;99.90;;;;;;5014044;28;20116;-77
2024/04/06 08:29:26;;;;;;;3.22;1.52;;;18.60;99.90;;;;;;5014990;28;20025;-77
2024/04/06 08:31:53;;;;;;;3.25;1.77;;;18.70;99.90;;;;;;5014002;28;20024;-77
2024/04/06 08:34:19;;;;;;;3.53;1.70;;;18.80;99.90;;;;;;5014847;28;20063;-76
2024/04/06 08:36:44;;;;;;;3.33;1.60;;;18.90;99.90;;;;;;5014392;28;20021;-77
2024/04/06 08:39:10;;;;;;;2.72;1.60;;;19.00;99.90;;;;;;5013398;28;20469;-77
2024/04/06 08:41:36;;;;;;;3.20;1.60;;;19.10;99.90;;;;;;5013797;28;20026;-76
2024/04/06 08:44:06;;;;;;;4.18;1.58;;;19.10;99.90;;;;;;5014761;28;20018;-77
2024/04/06 08:46:32;;;;;;;2.30;1.30;;;19.20;99.90;;;;;;5014005;28;20485;-77
2024/04/06 08:48:59;;;;;;;3.95;1.48;;;19.30;99.90;;;;;;5014812;28;20033;-77
2024/04/06 08:51:29;;;;;;;3.55;1.63;;;19.40;99.90;;;;;;5014110;28;20034;-77
2024/04/06 08:53:55;;;;;;;2.88;1.52;;;19.40;99.90;;;;;;5014773;28;20044;-77
2024/04/06 08:56:22;;;;;;;4.53;1.77;;;19.50;99.90;;;;;;5013523;28;20478;-76
2024/04/06 08:58:48;;;;;;;4.50;1.60;;;19.50;99.90;;;;;;5014332;28;20018;-77
2024/04/06 09:01:13;;;;;;;4.43;1.45;;;19.60;99.90;;;;;;5013501;28;20029;-77
2024/04/06 09:03:39;;;;;;;3.00;1.45;;;19.70;99.90;;;;;;5012897;28;20025;-77
2024/04/06 09:06:15;;;;;;;4.75;1.80;;;19.70;99.90;;;;;;5013216;28;20137;-77
2024/04/06 09:08:42;;;;;;;9.70;1.98;;;19.80;99.90;;;;;;5013112;28;20022;-76
2024/04/06 09:11:12;;;;;;;5.03;1.55;;;19.80;99.90;;;;;;5012157;28;20517;-77
2024/04/06 09:13:38;;;;;;;3.97;1.70;;;19.90;99.90;;;;;;5014078;28;20058;-77
2024/04/06 09:16:07;;;;;;;3.50;1.42;;;20.00;99.90;;;;;;5013514;28;20026;-77
2024/04/06 09:18:33;;;;;;;5.20;2.22;;;20.10;99.90;;;;;;5014188;28;20026;-76
2024/04/06 09:20:58;;;;;;;4.45;1.50;;;20.20;99.90;;;;;;5013686;28;20033;-77
2024/04/06 09:23:25;;;;;;;6.03;2.15;;;20.20;99.90;;;;;;5013120;28;20025;-77
2024/04/06 09:26:23;;;;;;;4.75;1.75;;;20.30;99.90;;;;;;5013772;28;20030;-77
2024/04/06 09:28:51;;;;;;;5.95;1.60;;;20.50;99.90;;;;;;5013297;28;20042;-77
2024/04/06 09:31:23;;;;;;;5.78;1.70;;;20.60;99.90;;;;;;5012775;28;20022;-77
2024/04/06 09:33:57;;;;;;;5.05;1.83;;;20.60;99.90;;;;;;5013681;28;20026;-77
2024/04/06 09:36:23;;;;;;;4.20;1.75;;;20.70;99.90;;;;;;5013077;28;20037;-77
2024/04/06 09:38:51;;;;;;;2.67;1.67;;;20.90;99.90;;;;;;5013959;28;20525;-77
2024/04/06 09:41:19;;;;;;;4.03;1.83;;;20.90;99.90;;;;;;5011372;28;20029;-77
2024/04/06 09:43:48;;;;;;;3.58;1.50;;;20.90;99.90;;;;;;5013228;28;20022;-77
2024/04/06 09:46:15;;;;;;;3.33;1.50;;;21.00;99.90;;;;;;5013189;28;20049;-77
2024/04/06 09:48:42;;;;;;;8.57;1.73;;;21.00;99.90;;;;;;5012991;28;20104;-77
2024/04/06 09:51:07;;;;;;;3.08;1.40;;;21.00;99.90;;;;;;5012323;28;20545;-78
2024/04/06 09:53:36;;;;;;;3.53;1.70;;;21.10;99.90;;;;;;5012708;28;20029;-78
2024/04/06 09:56:02;;;;;;;2.97;1.40;;;21.10;99.90;;;;;;5011850;28;20073;-77
2024/04/06 09:58:29;;;;;;;3.50;1.70;;;21.10;99.90;;;;;;5010960;28;20503;-78
2024/04/06 10:01:11;;;;;;;4.18;1.63;;;21.10;99.90;;;;;;5013372;28;20057;-78
2024/04/06 10:03:48;;;;;;;4.20;1.98;;;21.10;99.90;;;;;;5012760;28;20037;-78
2024/04/06 10:06:19;;;;;;;4.57;1.50;;;21.10;99.90;;;;;;5012670;28;20042;-77
2024/04/06 10:09:05;;;;;;;;;;;21.20;99.90;;;;;;5013457;28;20029;-78
2024/04/06 10:11:30;;;;;;;4.80;1.70;;;21.10;99.90;;;;;;5012349;28;19913;-77
2024/04/06 10:14:04;;;;;;;3.05;1.52;;;21.20;99.90;;;;;;5012722;28;20040;-77
2024/04/06 10:16:31;;;;;;;3.88;1.90;;;21.20;99.90;;;;;;5012311;28;20029;-78
2024/04/06 10:18:59;;;;;;;3.47;1.77;;;21.20;99.90;;;;;;5012733;28;20022;-78
2024/04/06 10:21:42;;;;;;;3.35;1.67;;;21.30;99.90;;;;;;5012313;28;20026;-77
2024/04/06 10:24:12;;;;;;;3.22;1.48;;;21.30;99.90;;;;;;5012747;28;20038;-77
2024/04/06 10:26:50;;;;;;;3.88;1.60;;;21.30;99.90;;;;;;5012363;28;20050;-77
2024/04/06 10:29:16;;;;;;;4.60;1.98;;;21.40;99.90;;;;;;5012598;28;20414;-77
2024/04/06 10:31:42;;;;;;;4.45;1.80;;;21.40;99.90;;;;;;5012210;28;20028;-78
2024/04/06 10:34:08;;;;;;;4.57;1.70;;;21.40;99.90;;;;;;5011052;28;20429;-77
2024/04/06 10:36:34;;;;;;;3.53;1.70;;;21.50;99.90;;;;;;5011770;28;20508;-77
2024/04/06 10:39:04;;;;;;;6.07;1.77;;;21.60;99.90;;;;;;5012193;28;20026;-77
2024/04/06 10:41:31;;;;;;;3.93;1.70;;;21.70;99.90;;;;;;5011777;28;20014;-77
2024/04/06 10:43:58;;;;;;;4.20;1.75;;;21.80;99.90;;;;;;5012108;28;20045;-78
2024/04/06 10:46:25;;;;;;;2.70;1.20;;;21.90;99.90;;;;;;5011966;28;20040;-76
2024/04/06 10:48:50;;;;;;;4.10;1.50;;;21.90;99.90;;;;;;5012353;28;20033;-77
2024/04/06 10:51:16;;;;;;;3.40;1.75;;;21.90;99.90;;;;;;5012426;28;20032;-77
2024/04/06 10:53:43;;;;;;;3.20;1.45;;;22.00;99.90;;;;;;5011625;28;20530;-77
2024/04/06 10:56:09;;;;;;;5.22;1.58;;;22.00;99.90;;;;;;5012777;28;20106;-77
2024/04/06 10:58:35;;;;;;;6.95;1.85;;;22.00;99.90;;;;;;5010405;28;20045;-77
2024/04/06 11:01:20;;;;;;;5.10;1.58;;;22.10;99.90;;;;;;5012449;28;20022;-77
2024/04/06 11:03:52;;;;;;;4.18;1.30;;;22.30;99.90;;;;;;5012959;28;20025;-76
2024/04/06 11:06:18;;;;;;;4.57;1.40;;;22.40;99.90;;;;;;5016018;28;20054;-77
2024/04/06 11:08:45;;;;;;;5.03;1.67;;;22.40;99.90;;;;;;5015618;28;20356;-76
2024/04/06 11:11:13;;;;;;;2.90;1.30;;;22.50;99.90;;;;;;5016633;28;20056;-77
2024/04/06 11:13:40;;;;;;;3.28;1.38;;;22.50;99.90;;;;;;5015819;28;20510;-77
2024/04/06 11:16:09;;;;;;;3.42;1.30;;;22.60;99.90;;;;;;5016427;28;20033;-77
2024/04/06 11:18:53;;;;;;;5.07;1.60;;;22.60;99.80;;;;;;5015559;28;20613;-76
2024/04/06 11:21:19;;;;;;;4.82;1.42;;;22.70;99.60;;;;;;5016336;28;20498;-76
2024/04/06 11:23:47;;;;;;;2.78;1.42;;;22.80;99.30;;;;;;5015505;28;20030;-76
2024/04/06 11:26:13;;;;;;;6.53;1.55;;;22.90;99.90;;;;;;5016287;28;20036;-77
2024/04/06 11:28:39;;;;;;;4.57;1.60;;;23.00;99.90;;;;;;5015411;28;20021;-77
2024/04/06 11:31:05;;;;;;;5.22;1.70;;;23.00;99.90;;;;;;5016453;28;20022;-76
2024/04/06 11:33:31;;;;;;;5.53;1.90;;;23.00;99.90;;;;;;5015258;28;20033;-76
2024/04/06 11:35:56;;;;;;;3.70;1.60;;;23.00;99.90;;;;;;5015567;28;20438;-76
2024/04/06 11:38:22;;;;;;;2.53;1.30;;;23.00;99.90;;;;;;5013925;28;20044;-76
2024/04/06 11:40:52;;;;;;;2.67;1.55;;;23.10;99.90;;;;;;5015960;28;20026;-76
2024/04/06 11:43:18;;;;;;;2.92;1.38;;;23.10;99.80;;;;;;5015190;28;20022;-77
2024/04/06 11:45:43;;;;;;;4.80;1.33;;;23.20;99.90;;;;;;5014887;28;20032;-77
2024/04/06 11:48:12;;;;;;;4.05;1.20;;;23.30;99.80;;;;;;5014816;28;20029;-76
2024/04/06 11:50:37;;;;;;;4.43;1.48;;;23.40;99.60;;;;;;5015429;28;20026;-77
2024/04/06 11:53:03;;;;;;;2.80;1.25;;;23.40;99.20;;;;;;5015150;28;20024;-76
2024/04/06 11:55:29;;;;;;;3.83;1.48;;;23.50;99.40;;;;;;5015296;28;20033;-76
2024/04/06 11:57:55;;;;;;;2.88;1.25;;;23.60;99.30;;;;;;5014961;28;20072;-76
2024/04/06 12:00:21;;;;;;;3.05;1.30;;;23.80;99.40;;;;;;5015274;28;20026;-77
2024/04/06 12:02:46;;;;;;;3.35;1.40;;;23.90;99.30;;;;;;5014773;28;20014;-77
2024/04/06 12:05:12;;;;;;;3.58;1.27;;;24.00;99.10;;;;;;5013687;28;20487;-77
2024/04/06 12:07:39;;;;;;;3.75;1.38;;;24.00;98.60;;;;;;5014947;28;20030;-78
2024/04/06 12:10:09;;;;;;;4.75;1.40;;;24.10;98.00;;;;;;5013785;28;20544;-76
2024/04/06 12:12:35;;;;;;;4.10;1.55;;;24.20;97.50;;;;;;5014784;28;20026;-77
2024/04/06 12:15:00;;;;;;;1.90;1.20;;;24.20;97.20;;;;;;5013421;28;20022;-76
2024/04/06 12:17:29;;;;;;;3.30;1.35;;;24.30;95.60;;;;;;5014535;28;20018;-77
2024/04/06 12:19:55;;;;;;;2.50;1.10;;;24.40;94.90;;;;;;5015157;28;20104;-76
2024/04/06 12:22:21;;;;;;;3.15;1.10;;;24.50;94.10;;;;;;5014700;28;20554;-76
2024/04/06 12:24:46;;;;;;;3.25;1.38;;;24.60;93.10;;;;;;5013392;28;20502;-77
2024/04/06 12:27:14;;;;;;;2.95;1.30;;;24.70;92.60;;;;;;5014534;28;20108;-77
2024/04/06 12:29:40;;;;;;;3.35;1.40;;;24.70;91.60;;;;;;5014703;28;20022;-76
2024/04/06 12:32:06;;;;;;;3.35;1.23;;;24.90;91.60;;;;;;5014187;28;20032;-77
2024/04/06 12:34:32;;;;;;;3.50;1.70;;;24.90;90.80;;;;;;5013382;28;20111;-76
2024/04/06 12:37:01;;;;;;;2.53;1.25;;;25.00;90.10;;;;;;5013989;28;20839;-76
2024/04/06 12:39:27;;;;;;;3.08;1.48;;;25.00;90.30;;;;;;5014620;28;20470;-76
2024/04/06 12:41:53;;;;;;;5.38;1.20;;;25.00;89.60;;;;;;5014097;28;20404;-77
2024/04/06 12:44:19;;;;;;;3.53;1.20;;;25.00;89.00;;;;;;5013077;28;20079;-77
2024/04/06 12:46:44;;;;;;;3.08;0.82;;;25.00;88.70;;;;;;5014563;28;20026;-76